Nina — ICMG — position and weather

sailwx.info

Track history (hours):
 
Tides and Currents Weather Stations Pressure Air Temp Water Temp Dewpoint Dewpoint Depression Visibility Wind Speed Wind Dir Waves Ship Positions

Nina

Last reported at 2017-Apr-29 21:30 UTC. Time now 2017-Apr-29 21:31 UTC.
Position N 53°58' E 009°16'.

Length 180 m; draft 7 m.

Type: Ship (hazmat cat A). MMSI: 247239700.

Date/timePositionNaut miles runAvg speedWind from/ knotsBaromVisibWave heightAir tempDewpointWater temp
2017-Apr-29 21:30N 53°58' E 009°16'2 3.9
2017-Apr-29 21:00N 53°57' E 009°14'2 4.0
2017-Apr-29 20:30N 53°55' E 009°11'2 4.3
2017-Apr-29 20:00N 53°54' E 009°09'0 0.0
2017-Apr-29 19:30N 53°54' E 009°09'0 0.0
2017-Apr-29 19:00N 53°54' E 009°09'1 1.1
2017-Apr-29 18:30N 53°53' E 009°08'1 2.2
2017-Apr-29 18:00N 53°53' E 009°06'0 0.3
2017-Apr-29 17:26N 53°53' E 009°06'0 0.1
2017-Apr-29 16:56N 53°53' E 009°06'0 0.3
2017-Apr-29 16:29N 53°53' E 009°07'0 0.2
2017-Apr-29 15:59N 53°53' E 009°07'0 0.0
2017-Apr-29 15:29N 53°53' E 009°07'0 0.4
2017-Apr-29 15:00N 53°53' E 009°07'6 6.2
2017-Apr-29 14:00N 53°51' E 008°57'714.0
2017-Apr-29 13:30N 53°51' E 008°45'815.4
2017-Apr-29 13:00N 53°57' E 008°37'815.2
2017-Apr-29 12:30N 53°59' E 008°24'714.2
2017-Apr-29 12:00N 53°59' E 008°12'17910.6
2017-Apr-28 19:08N 52°38' E 003°45'213.8
2017-Apr-28 19:01N 52°37' E 003°48'714.1
2017-Apr-28 18:30N 52°32' E 003°56'713.7
2017-Apr-28 18:00N 52°31' E 004°07'714.3
2017-Apr-28 17:31N 52°30' E 004°19'611.1
2017-Apr-28 17:00N 52°29' E 004°28'510.0
2017-Apr-28 16:30N 52°28' E 004°36'0 0.8
2017-Apr-28 16:00N 52°28' E 004°37'1 1.6
2017-Apr-28 15:30N 52°28' E 004°38'1 2.9
2017-Apr-28 15:00N 52°28' E 004°40'3 6.6
2017-Apr-28 14:31N 52°26' E 004°45'1 1.8
2017-Apr-28 13:58N 52°25' E 004°45'0 0.0
2017-Apr-28 13:30N 52°25' E 004°45'0 0.0
2017-Apr-28 12:53N 52°25' E 004°45'0 0.0
2017-Apr-28 12:30N 52°25' E 004°45'0 0.0
2017-Apr-28 12:01N 52°25' E 004°45'0 0.0
2017-Apr-28 11:27N 52°25' E 004°45'0 0.0
2017-Apr-28 10:58N 52°25' E 004°45'0 0.0
2017-Apr-28 10:29N 52°25' E 004°45'0 0.0
2017-Apr-28 09:59N 52°25' E 004°45'0 0.0
2017-Apr-28 09:30N 52°25' E 004°45'0 0.0
2017-Apr-28 08:57N 52°25' E 004°45'0 0.0
2017-Apr-28 08:30N 52°25' E 004°45'0 0.0
2017-Apr-28 08:00N 52°25' E 004°45'0 0.0
2017-Apr-28 07:29N 52°25' E 004°45'0 0.0
2017-Apr-28 06:52N 52°25' E 004°45'0 0.0
2017-Apr-28 06:29N 52°25' E 004°45'0 0.0
2017-Apr-28 05:47N 52°25' E 004°45'0 0.0
2017-Apr-28 05:18N 52°25' E 004°45'0 0.0
2017-Apr-28 05:00N 52°25' E 004°45'0 0.0
2017-Apr-28 04:26N 52°25' E 004°45'0 0.0
2017-Apr-28 03:53N 52°25' E 004°45'0 0.0
2017-Apr-28 03:30N 52°25' E 004°45'0 0.0
2017-Apr-28 02:55N 52°25' E 004°45'0 0.0
2017-Apr-28 02:28N 52°25' E 004°45'0 0.0
2017-Apr-28 01:58N 52°25' E 004°45'0 0.0
2017-Apr-28 01:28N 52°25' E 004°45'0 0.0
2017-Apr-28 00:58N 52°25' E 004°45'0 0.0
2017-Apr-28 00:22N 52°25' E 004°45'0 0.0
2017-Apr-27 23:58N 52°25' E 004°45'0 0.0
2017-Apr-27 23:28N 52°25' E 004°45'0 0.0
2017-Apr-27 22:58N 52°25' E 004°45'0 0.0
2017-Apr-27 22:28N 52°25' E 004°45'0 0.0
2017-Apr-27 21:58N 52°25' E 004°45'0 0.0
2017-Apr-27 21:30N 52°25' E 004°45'0 0.0
2017-Apr-27 20:57N 52°25' E 004°45'0 0.0
2017-Apr-27 20:27N 52°25' E 004°45'0 0.0
2017-Apr-27 20:01N 52°25' E 004°45'0 0.0
2017-Apr-27 19:27N 52°25' E 004°45'0 0.0
2017-Apr-27 18:57N 52°25' E 004°45'0 0.0
2017-Apr-27 18:23N 52°25' E 004°45'0 0.0
2017-Apr-27 18:00N 52°25' E 004°45'0 0.0
2017-Apr-27 17:23N 52°25' E 004°45'0 0.0
2017-Apr-27 17:00N 52°25' E 004°45'0 0.0
2017-Apr-27 16:29N 52°25' E 004°45'0 0.0
2017-Apr-27 15:50N 52°25' E 004°45'0 0.0
2017-Apr-27 15:30N 52°25' E 004°45'0 0.0
2017-Apr-27 14:58N 52°25' E 004°45'0 0.0
2017-Apr-27 14:26N 52°25' E 004°45'0 0.0
2017-Apr-27 14:01N 52°25' E 004°45'0 0.0
2017-Apr-27 13:26N 52°25' E 004°45'0 0.0
2017-Apr-27 12:58N 52°25' E 004°45'0 0.0
2017-Apr-27 12:24N 52°25' E 004°45'0 0.0
2017-Apr-27 11:54N 52°25' E 004°45'0 0.0
2017-Apr-27 11:30N 52°25' E 004°45'0 0.0
2017-Apr-27 11:00N 52°25' E 004°45'0 0.0
2017-Apr-27 10:30N 52°25' E 004°45'0 0.0
2017-Apr-27 09:54N 52°25' E 004°45'0 0.0
2017-Apr-27 09:30N 52°25' E 004°45'0 0.0
2017-Apr-27 08:56N 52°25' E 004°45'0 0.0
2017-Apr-27 08:23N 52°25' E 004°45'0 0.0
2017-Apr-27 07:59N 52°25' E 004°45'0 0.0
2017-Apr-27 07:29N 52°25' E 004°45'0 0.0
2017-Apr-27 06:59N 52°25' E 004°45'0 0.0
2017-Apr-27 06:26N 52°25' E 004°45'0 0.0
2017-Apr-27 05:53N 52°25' E 004°45'0 0.0
2017-Apr-27 05:29N 52°25' E 004°45'0 0.0
2017-Apr-27 04:59N 52°25' E 004°45'0 0.0
2017-Apr-27 04:29N 52°25' E 004°45'0 0.0
2017-Apr-27 04:00N 52°25' E 004°45'0 0.0
2017-Apr-27 03:26N 52°25' E 004°45'0 0.0
2017-Apr-27 02:58N 52°25' E 004°45'0 0.0
2017-Apr-27 02:25N 52°25' E 004°45'0 0.0
2017-Apr-27 01:49N 52°25' E 004°45'0 0.0
2017-Apr-27 01:25N 52°25' E 004°45'0 0.0
2017-Apr-27 01:00N 52°25' E 004°45'0 0.0
2017-Apr-27 00:29N 52°25' E 004°45'0 0.0
2017-Apr-26 23:59N 52°25' E 004°45'0 0.0
2017-Apr-26 23:26N 52°25' E 004°45'0 0.0
2017-Apr-26 22:59N 52°25' E 004°45'0 0.0
2017-Apr-26 22:29N 52°25' E 004°45'0 0.0
2017-Apr-26 21:53N 52°25' E 004°45'0 0.0
2017-Apr-26 21:29N 52°25' E 004°45'0 0.0
2017-Apr-26 20:59N 52°25' E 004°45'0 0.0
2017-Apr-26 20:23N 52°25' E 004°45'0 0.0
2017-Apr-26 19:59N 52°25' E 004°45'0 0.0
2017-Apr-26 19:29N 52°25' E 004°45'0 0.0
2017-Apr-26 18:59N 52°25' E 004°45'0 0.0
2017-Apr-26 18:28N 52°25' E 004°45'0 0.0
2017-Apr-26 18:00N 52°25' E 004°45'0 0.0
2017-Apr-26 17:27N 52°25' E 004°45'0 0.0
2017-Apr-26 16:57N 52°25' E 004°45'0 0.0
2017-Apr-26 16:19N 52°25' E 004°45'0 0.0
2017-Apr-26 15:58N 52°25' E 004°45'0 0.0
2017-Apr-26 15:28N 52°25' E 004°45'0 0.0
2017-Apr-26 14:58N 52°25' E 004°45'0 0.0
2017-Apr-26 14:19N 52°25' E 004°45'0 0.0
2017-Apr-26 13:47N 52°25' E 004°45'0 0.0
2017-Apr-26 13:28N 52°25' E 004°45'0 0.0
2017-Apr-26 12:56N 52°25' E 004°45'0 0.0
2017-Apr-26 12:29N 52°25' E 004°45'0 0.0
2017-Apr-26 11:50N 52°25' E 004°45'0 0.0
2017-Apr-26 11:30N 52°25' E 004°45'0 0.0
2017-Apr-26 10:41N 52°25' E 004°45'0 0.0
2017-Apr-26 10:29N 52°25' E 004°45'0 0.0
2017-Apr-26 10:00N 52°25' E 004°45'0 0.0
2017-Apr-26 09:27N 52°25' E 004°45'0 0.0
2017-Apr-26 09:01N 52°25' E 004°45'0 0.0
2017-Apr-26 08:23N 52°25' E 004°45'0 0.0
2017-Apr-26 07:50N 52°25' E 004°45'0 0.0
2017-Apr-26 07:26N 52°25' E 004°45'0 0.0
2017-Apr-26 06:56N 52°25' E 004°45'0 0.0
2017-Apr-26 06:30N 52°25' E 004°45'0 0.0
2017-Apr-26 05:55N 52°25' E 004°45'0 0.0
2017-Apr-26 05:29N 52°25' E 004°45'0 0.0
2017-Apr-26 04:46N 52°25' E 004°45'0 0.0
2017-Apr-26 04:28N 52°25' E 004°45'0 0.0
2017-Apr-26 03:52N 52°25' E 004°45'0 0.0
2017-Apr-26 03:30N 52°25' E 004°45'0 0.0
2017-Apr-26 02:58N 52°25' E 004°45'1 1.4
2017-Apr-26 02:31N 52°25' E 004°45'3 6.5
2017-Apr-26 02:00N 52°27' E 004°40'2 5.0
2017-Apr-26 01:31N 52°28' E 004°37'0 0.0
2017-Apr-26 01:00N 52°28' E 004°37'3 5.0
2017-Apr-26 00:30N 52°28' E 004°32'510.5
2017-Apr-26 00:00N 52°28' E 004°24'3 6.8
2017-Apr-25 23:30N 52°28' E 004°18'3 5.7
2017-Apr-25 23:01N 52°29' E 004°14'4 7.1
2017-Apr-25 22:30N 52°29' E 004°08'4 7.3
2017-Apr-25 22:00N 52°27' E 004°02'1 1.7
2017-Apr-25 21:29N 52°26' E 004°02'0 0.0
2017-Apr-25 20:59N 52°26' E 004°02'0 0.0
2017-Apr-25 20:29N 52°26' E 004°02'0 0.0
2017-Apr-25 19:53N 52°26' E 004°02'0 0.0
2017-Apr-25 19:29N 52°26' E 004°02'0 0.0
2017-Apr-25 18:41N 52°26' E 004°02'0 0.1
2017-Apr-25 18:26N 52°26' E 004°02'0 0.1
2017-Apr-25 17:59N 52°26' E 004°02'0 0.1
2017-Apr-25 17:29N 52°26' E 004°02'0 0.1
2017-Apr-25 16:59N 52°27' E 004°02'0 0.1
2017-Apr-25 16:29N 52°27' E 004°02'0 0.1
2017-Apr-25 15:50N 52°27' E 004°02'0 0.1
2017-Apr-25 15:29N 52°27' E 004°02'0 0.1
2017-Apr-25 14:59N 52°27' E 004°02'0 0.0
2017-Apr-25 13:59N 52°27' E 004°02'0 0.0
2017-Apr-25 13:29N 52°27' E 004°02'0 0.1
2017-Apr-25 12:59N 52°27' E 004°02'0 0.1
2017-Apr-25 12:26N 52°27' E 004°02'0 0.1
2017-Apr-25 11:59N 52°26' E 004°02'0 0.1
2017-Apr-25 11:29N 52°26' E 004°02'0 0.1
2017-Apr-25 10:59N 52°26' E 004°02'0 0.0
2017-Apr-25 10:29N 52°26' E 004°02'0 0.0
2017-Apr-25 09:59N 52°26' E 004°02'0 0.0
2017-Apr-25 09:29N 52°26' E 004°02'0 0.1
2017-Apr-25 08:59N 52°26' E 004°02'0 0.0
2017-Apr-25 08:29N 52°26' E 004°02'0 0.0
2017-Apr-25 07:59N 52°26' E 004°02'0 0.0
2017-Apr-25 07:29N 52°26' E 004°02'0 0.0
2017-Apr-25 06:59N 52°26' E 004°02'0 0.1
2017-Apr-25 06:29N 52°26' E 004°02'0 0.1
2017-Apr-25 05:59N 52°26' E 004°02'0 0.1
2017-Apr-25 05:29N 52°27' E 004°02'0 0.0
2017-Apr-25 04:59N 52°27' E 004°02'0 0.0
2017-Apr-25 04:29N 52°27' E 004°02'0 0.1
2017-Apr-25 03:59N 52°27' E 004°02'0 0.1
2017-Apr-25 03:23N 52°27' E 004°02'0 0.0
2017-Apr-25 02:59N 52°27' E 004°02'0 0.1
2017-Apr-25 02:29N 52°27' E 004°02'0 0.1
2017-Apr-25 01:59N 52°27' E 004°02'0 0.0
2017-Apr-25 01:29N 52°27' E 004°02'0 0.0
2017-Apr-25 00:59N 52°27' E 004°02'0 0.1
2017-Apr-25 00:29N 52°27' E 004°02'0 0.2
2017-Apr-24 23:59N 52°27' E 004°02'0 0.0
2017-Apr-24 23:29N 52°27' E 004°02'0 0.0
2017-Apr-24 22:59N 52°27' E 004°02'0 0.2
2017-Apr-24 22:29N 52°26' E 004°02'0 0.1
2017-Apr-24 21:59N 52°26' E 004°02'0 0.0
2017-Apr-24 21:29N 52°26' E 004°02'0 0.0
2017-Apr-24 20:59N 52°27' E 004°02'0 0.0
2017-Apr-24 20:29N 52°27' E 004°02'0 0.0
2017-Apr-24 19:59N 52°26' E 004°02'0 0.0
2017-Apr-24 19:29N 52°27' E 004°02'0 0.0
2017-Apr-24 18:59N 52°27' E 004°02'0 0.1
2017-Apr-24 18:29N 52°26' E 004°02'0 0.1
2017-Apr-24 17:59N 52°26' E 004°02'0 0.2
2017-Apr-24 17:29N 52°27' E 004°02'0 0.1
2017-Apr-24 16:59N 52°27' E 004°02'0 0.1
2017-Apr-24 16:29N 52°27' E 004°02'0 0.1
2017-Apr-24 15:59N 52°27' E 004°02'0 0.1
2017-Apr-24 15:29N 52°27' E 004°02'0 0.0
2017-Apr-24 14:59N 52°27' E 004°02'0 0.0
2017-Apr-24 13:44N 52°27' E 004°02'0 0.0
2017-Apr-24 13:20N 52°27' E 004°02'0 0.0
2017-Apr-24 12:59N 52°27' E 004°02'0 0.0
2017-Apr-24 12:29N 52°27' E 004°02'0 0.0
2017-Apr-24 11:59N 52°27' E 004°02'0 0.1
2017-Apr-24 11:29N 52°27' E 004°02'0 0.1
2017-Apr-24 10:59N 52°27' E 004°02'0 0.1
2017-Apr-24 10:29N 52°27' E 004°02'0 0.2
2017-Apr-24 09:59N 52°27' E 004°02'0 0.1
2017-Apr-24 09:29N 52°27' E 004°02'0 0.0
2017-Apr-24 08:59N 52°27' E 004°02'0 0.0
2017-Apr-24 08:29N 52°27' E 004°02'0 0.0
2017-Apr-24 07:59N 52°27' E 004°02'0 0.0
2017-Apr-24 07:29N 52°27' E 004°02'0 0.0
2017-Apr-24 06:59N 52°27' E 004°02'0 0.1
2017-Apr-24 06:29N 52°27' E 004°02'0 0.2
2017-Apr-24 05:59N 52°27' E 004°02'0 0.2
2017-Apr-24 05:26N 52°27' E 004°02'0 0.1
2017-Apr-24 04:59N 52°27' E 004°02'0 0.1
2017-Apr-24 04:29N 52°27' E 004°02'0 0.1
2017-Apr-24 03:59N 52°27' E 004°02'0 0.1
2017-Apr-24 03:26N 52°27' E 004°02'0 0.0
2017-Apr-24 02:59N 52°27' E 004°02'0 0.0
2017-Apr-24 02:29N 52°27' E 004°02'0 0.0
2017-Apr-24 01:59N 52°27' E 004°02'0 0.0
2017-Apr-24 01:26N 52°27' E 004°02'0 0.0
2017-Apr-24 00:59N 52°27' E 004°02'0 0.0
2017-Apr-24 00:26N 52°27' E 004°02'0 0.0
2017-Apr-23 23:53N 52°27' E 004°02'0 0.0
2017-Apr-23 23:20N 52°27' E 004°02'0 0.0
2017-Apr-23 22:56N 52°27' E 004°02'0 0.1
2017-Apr-23 22:17N 52°27' E 004°02'0 0.2
2017-Apr-23 21:59N 52°27' E 004°02'0 0.2
2017-Apr-23 21:17N 52°27' E 004°02'0 0.1
2017-Apr-23 20:59N 52°27' E 004°02'0 0.0
2017-Apr-23 20:17N 52°27' E 004°02'0 0.0
2017-Apr-23 19:59N 52°27' E 004°02'0 0.0
2017-Apr-23 19:29N 52°27' E 004°02'0 0.0
2017-Apr-23 18:59N 52°27' E 004°02'0 0.0
2017-Apr-23 18:23N 52°27' E 004°02'0 0.0
2017-Apr-23 17:50N 52°27' E 004°02'0 0.0
2017-Apr-23 17:17N 52°27' E 004°02'0 0.1
2017-Apr-23 16:56N 52°26' E 004°02'0 0.0
2017-Apr-23 16:29N 52°26' E 004°02'0 0.0
2017-Apr-23 15:59N 52°26' E 004°02'0 0.1
2017-Apr-23 15:08N 52°27' E 004°02'0 0.2
2017-Apr-23 14:59N 52°27' E 004°02'0 0.0
2017-Apr-23 14:17N 52°27' E 004°02'0 0.0
2017-Apr-23 12:23N 52°27' E 004°02'0 0.0
2017-Apr-23 11:59N 52°27' E 004°02'0 0.1
2017-Apr-23 11:29N 52°27' E 004°02'0 0.2
2017-Apr-23 10:50N 52°27' E 004°02'0 0.1
2017-Apr-23 10:29N 52°26' E 004°02'0 0.1
2017-Apr-23 09:59N 52°26' E 004°02'0 0.0
2017-Apr-23 09:29N 52°26' E 004°02'0 0.0
2017-Apr-23 08:56N 52°26' E 004°02'0 0.0
2017-Apr-23 08:08N 52°26' E 004°02'0 0.0
2017-Apr-23 07:59N 52°26' E 004°02'0 0.0
2017-Apr-23 07:14N 52°26' E 004°02'0 0.0
2017-Apr-23 06:47N 52°26' E 004°02'0 0.0
2017-Apr-23 06:29N 52°26' E 004°02'0 0.0
2017-Apr-23 05:59N 52°26' E 004°02'0 0.0
2017-Apr-23 05:23N 52°26' E 004°02'0 0.0
2017-Apr-23 04:56N 52°26' E 004°02'0 0.0
2017-Apr-23 04:29N 52°26' E 004°02'0 0.0
2017-Apr-23 03:59N 52°26' E 004°02'0 0.1
2017-Apr-23 03:29N 52°26' E 004°02'0 0.0
2017-Apr-23 02:56N 52°26' E 004°02'0 0.1
2017-Apr-23 02:26N 52°26' E 004°02'0 0.1
2017-Apr-23 01:59N 52°26' E 004°02'0 0.1
2017-Apr-23 01:20N 52°27' E 004°02'0 0.0
2017-Apr-23 00:47N 52°27' E 004°02'0 0.1
2017-Apr-23 00:29N 52°27' E 004°02'0 0.1
2017-Apr-22 23:59N 52°27' E 004°02'0 0.0
2017-Apr-22 23:29N 52°27' E 004°02'0 0.1
2017-Apr-22 22:56N 52°26' E 004°02'0 0.1
2017-Apr-22 22:29N 52°26' E 004°02'0 0.0
2017-Apr-22 21:53N 52°26' E 004°02'0 0.0
2017-Apr-22 21:29N 52°26' E 004°02'0 0.0
2017-Apr-22 20:59N 52°26' E 004°02'0 0.0
2017-Apr-22 20:29N 52°26' E 004°02'0 0.0
2017-Apr-22 19:59N 52°26' E 004°02'0 0.0
2017-Apr-22 19:29N 52°26' E 004°02'0 0.0
2017-Apr-22 18:53N 52°26' E 004°02'0 0.0
2017-Apr-22 18:20N 52°26' E 004°02'0 0.0
2017-Apr-22 17:59N 52°26' E 004°02'0 0.0
2017-Apr-22 17:29N 52°26' E 004°02'0 0.0
2017-Apr-22 16:50N 52°26' E 004°02'0 0.0
2017-Apr-22 10:17N 52°26' E 004°02'0 0.0
2017-Apr-22 04:35N 52°26' E 004°02'0 0.0
2017-Apr-22 04:08N 52°26' E 004°02'0 0.1
2017-Apr-22 03:59N 52°26' E 004°02'0 0.1
2017-Apr-22 03:29N 52°26' E 004°02'0 0.0
2017-Apr-21 22:02N 52°27' E 004°02'0 0.0
2017-Apr-21 14:53N 52°27' E 004°02'0 0.1
2017-Apr-21 14:26N 52°27' E 004°02'0 0.0
2017-Apr-21 04:36N 52°27' E 004°02'0 0.0
2017-Apr-21 04:30N 52°27' E 004°02'0 0.0
2017-Apr-21 04:00N 52°27' E 004°02'0 0.0
2017-Apr-21 03:30N 52°27' E 004°02'0 0.0
2017-Apr-21 03:00N 52°27' E 004°02'0 0.1
2017-Apr-21 02:30N 52°27' E 004°02'0 0.1
2017-Apr-21 02:00N 52°27' E 004°02'0 0.1
2017-Apr-21 01:30N 52°27' E 004°02'0 0.1
2017-Apr-21 01:00N 52°27' E 004°02'0 0.0
2017-Apr-21 00:24N 52°27' E 004°02'0 0.0
2017-Apr-21 00:00N 52°27' E 004°02'0 0.0
2017-Apr-20 23:21N 52°27' E 004°02'0 0.0
2017-Apr-20 23:00N 52°27' E 004°02'0 0.0
2017-Apr-20 22:18N 52°27' E 004°02'0 0.0
2017-Apr-20 22:00N 52°27' E 004°02'0 0.0
2017-Apr-20 21:30N 52°27' E 004°02'0 0.0
2017-Apr-20 20:33N 52°27' E 004°02'0 0.1
2017-Apr-20 20:24N 52°27' E 004°02'0 0.0
2017-Apr-20 19:51N 52°27' E 004°02'0 0.0
2017-Apr-20 19:27N 52°27' E 004°02'0 0.0
2017-Apr-20 19:00N 52°27' E 004°02'0 0.0
2017-Apr-20 18:30N 52°27' E 004°02'0 0.1
2017-Apr-20 18:00N 52°27' E 004°02'0 0.0
2017-Apr-20 17:30N 52°27' E 004°02'0 0.0
2017-Apr-20 17:00N 52°27' E 004°02'0 0.1
2017-Apr-20 16:30N 52°27' E 004°02'0 0.1
2017-Apr-20 16:00N 52°27' E 004°02'0 0.0
2017-Apr-20 15:30N 52°27' E 004°02'0 0.0
2017-Apr-20 15:00N 52°27' E 004°02'0 0.1
2017-Apr-20 14:30N 52°27' E 004°02'0 0.1
2017-Apr-20 13:30N 52°27' E 004°02'0 0.0
2017-Apr-20 13:00N 52°27' E 004°02'0 0.0
2017-Apr-20 12:30N 52°27' E 004°02'0 0.0
2017-Apr-20 11:57N 52°27' E 004°02'0 0.0
2017-Apr-20 11:27N 52°27' E 004°02'0 0.0
2017-Apr-20 11:00N 52°27' E 004°02'0 0.0
2017-Apr-20 10:30N 52°27' E 004°02'0 0.0
2017-Apr-20 07:18N 52°27' E 004°02'1 2.4
2017-Apr-20 07:00N 52°27' E 004°01'7511.6
2017-Apr-20 00:35N 51°39' E 002°28'211.8
2017-Apr-20 00:25N 51°38' E 002°26'611.9
2017-Apr-19 23:57N 51°34' E 002°20'612.1
2017-Apr-19 23:28N 51°29' E 002°14'612.2
2017-Apr-19 23:00N 51°25' E 002°09'612.3
2017-Apr-19 22:31N 51°19' E 002°07'611.1
2017-Apr-19 22:00N 51°14' E 002°03'612.4
2017-Apr-19 21:30N 51°11' E 001°54'  
Track history (hours):
 
Tides and Currents Weather Stations Pressure Air Temp Water Temp Dewpoint Dewpoint Depression Visibility Wind Speed Wind Dir Waves Ship Positions

Nina

Last reported at 2017-Apr-29 21:30 UTC. Time now 2017-Apr-29 21:31 UTC.
Position N 53°58' E 009°16'.

Length 180 m; draft 7 m.

Type: Ship (hazmat cat A). MMSI: 247239700.

Date/timePositionNaut miles runAvg speedWind from/ knotsBaromVisibWave heightAir tempDewpointWater temp
2017-Apr-29 21:30N 53°58' E 009°16'2 3.9
2017-Apr-29 21:00N 53°57' E 009°14'2 4.0
2017-Apr-29 20:30N 53°55' E 009°11'2 4.3
2017-Apr-29 20:00N 53°54' E 009°09'0 0.0
2017-Apr-29 19:30N 53°54' E 009°09'0 0.0
2017-Apr-29 19:00N 53°54' E 009°09'1 1.1
2017-Apr-29 18:30N 53°53' E 009°08'1 2.2
2017-Apr-29 18:00N 53°53' E 009°06'0 0.3
2017-Apr-29 17:26N 53°53' E 009°06'0 0.1
2017-Apr-29 16:56N 53°53' E 009°06'0 0.3
2017-Apr-29 16:29N 53°53' E 009°07'0 0.2
2017-Apr-29 15:59N 53°53' E 009°07'0 0.0
2017-Apr-29 15:29N 53°53' E 009°07'0 0.4
2017-Apr-29 15:00N 53°53' E 009°07'6 6.2
2017-Apr-29 14:00N 53°51' E 008°57'714.0
2017-Apr-29 13:30N 53°51' E 008°45'815.4
2017-Apr-29 13:00N 53°57' E 008°37'815.2
2017-Apr-29 12:30N 53°59' E 008°24'714.2
2017-Apr-29 12:00N 53°59' E 008°12'17910.6
2017-Apr-28 19:08N 52°38' E 003°45'213.8
2017-Apr-28 19:01N 52°37' E 003°48'714.1
2017-Apr-28 18:30N 52°32' E 003°56'713.7
2017-Apr-28 18:00N 52°31' E 004°07'714.3
2017-Apr-28 17:31N 52°30' E 004°19'611.1
2017-Apr-28 17:00N 52°29' E 004°28'510.0
2017-Apr-28 16:30N 52°28' E 004°36'0 0.8
2017-Apr-28 16:00N 52°28' E 004°37'1 1.6
2017-Apr-28 15:30N 52°28' E 004°38'1 2.9
2017-Apr-28 15:00N 52°28' E 004°40'3 6.6
2017-Apr-28 14:31N 52°26' E 004°45'1 1.8
2017-Apr-28 13:58N 52°25' E 004°45'0 0.0
2017-Apr-28 13:30N 52°25' E 004°45'0 0.0
2017-Apr-28 12:53N 52°25' E 004°45'0 0.0
2017-Apr-28 12:30N 52°25' E 004°45'0 0.0
2017-Apr-28 12:01N 52°25' E 004°45'0 0.0
2017-Apr-28 11:27N 52°25' E 004°45'0 0.0
2017-Apr-28 10:58N 52°25' E 004°45'0 0.0
2017-Apr-28 10:29N 52°25' E 004°45'0 0.0
2017-Apr-28 09:59N 52°25' E 004°45'0 0.0
2017-Apr-28 09:30N 52°25' E 004°45'0 0.0
2017-Apr-28 08:57N 52°25' E 004°45'0 0.0
2017-Apr-28 08:30N 52°25' E 004°45'0 0.0
2017-Apr-28 08:00N 52°25' E 004°45'0 0.0
2017-Apr-28 07:29N 52°25' E 004°45'0 0.0
2017-Apr-28 06:52N 52°25' E 004°45'0 0.0
2017-Apr-28 06:29N 52°25' E 004°45'0 0.0
2017-Apr-28 05:47N 52°25' E 004°45'0 0.0
2017-Apr-28 05:18N 52°25' E 004°45'0 0.0
2017-Apr-28 05:00N 52°25' E 004°45'0 0.0
2017-Apr-28 04:26N 52°25' E 004°45'0 0.0
2017-Apr-28 03:53N 52°25' E 004°45'0 0.0
2017-Apr-28 03:30N 52°25' E 004°45'0 0.0
2017-Apr-28 02:55N 52°25' E 004°45'0 0.0
2017-Apr-28 02:28N 52°25' E 004°45'0 0.0
2017-Apr-28 01:58N 52°25' E 004°45'0 0.0
2017-Apr-28 01:28N 52°25' E 004°45'0 0.0
2017-Apr-28 00:58N 52°25' E 004°45'0 0.0
2017-Apr-28 00:22N 52°25' E 004°45'0 0.0
2017-Apr-27 23:58N 52°25' E 004°45'0 0.0
2017-Apr-27 23:28N 52°25' E 004°45'0 0.0
2017-Apr-27 22:58N 52°25' E 004°45'0 0.0
2017-Apr-27 22:28N 52°25' E 004°45'0 0.0
2017-Apr-27 21:58N 52°25' E 004°45'0 0.0
2017-Apr-27 21:30N 52°25' E 004°45'0 0.0
2017-Apr-27 20:57N 52°25' E 004°45'0 0.0
2017-Apr-27 20:27N 52°25' E 004°45'0 0.0
2017-Apr-27 20:01N 52°25' E 004°45'0 0.0
2017-Apr-27 19:27N 52°25' E 004°45'0 0.0
2017-Apr-27 18:57N 52°25' E 004°45'0 0.0
2017-Apr-27 18:23N 52°25' E 004°45'0 0.0
2017-Apr-27 18:00N 52°25' E 004°45'0 0.0
2017-Apr-27 17:23N 52°25' E 004°45'0 0.0
2017-Apr-27 17:00N 52°25' E 004°45'0 0.0
2017-Apr-27 16:29N 52°25' E 004°45'0 0.0
2017-Apr-27 15:50N 52°25' E 004°45'0 0.0
2017-Apr-27 15:30N 52°25' E 004°45'0 0.0
2017-Apr-27 14:58N 52°25' E 004°45'0 0.0
2017-Apr-27 14:26N 52°25' E 004°45'0 0.0
2017-Apr-27 14:01N 52°25' E 004°45'0 0.0
2017-Apr-27 13:26N 52°25' E 004°45'0 0.0
2017-Apr-27 12:58N 52°25' E 004°45'0 0.0
2017-Apr-27 12:24N 52°25' E 004°45'0 0.0
2017-Apr-27 11:54N 52°25' E 004°45'0 0.0
2017-Apr-27 11:30N 52°25' E 004°45'0 0.0
2017-Apr-27 11:00N 52°25' E 004°45'0 0.0
2017-Apr-27 10:30N 52°25' E 004°45'0 0.0
2017-Apr-27 09:54N 52°25' E 004°45'0 0.0
2017-Apr-27 09:30N 52°25' E 004°45'0 0.0
2017-Apr-27 08:56N 52°25' E 004°45'0 0.0
2017-Apr-27 08:23N 52°25' E 004°45'0 0.0
2017-Apr-27 07:59N 52°25' E 004°45'0 0.0
2017-Apr-27 07:29N 52°25' E 004°45'0 0.0
2017-Apr-27 06:59N 52°25' E 004°45'0 0.0
2017-Apr-27 06:26N 52°25' E 004°45'0 0.0
2017-Apr-27 05:53N 52°25' E 004°45'0 0.0
2017-Apr-27 05:29N 52°25' E 004°45'0 0.0
2017-Apr-27 04:59N 52°25' E 004°45'0 0.0
2017-Apr-27 04:29N 52°25' E 004°45'0 0.0
2017-Apr-27 04:00N 52°25' E 004°45'0 0.0
2017-Apr-27 03:26N 52°25' E 004°45'0 0.0
2017-Apr-27 02:58N 52°25' E 004°45'0 0.0
2017-Apr-27 02:25N 52°25' E 004°45'0 0.0
2017-Apr-27 01:49N 52°25' E 004°45'0 0.0
2017-Apr-27 01:25N 52°25' E 004°45'0 0.0
2017-Apr-27 01:00N 52°25' E 004°45'0 0.0
2017-Apr-27 00:29N 52°25' E 004°45'0 0.0
2017-Apr-26 23:59N 52°25' E 004°45'0 0.0
2017-Apr-26 23:26N 52°25' E 004°45'0 0.0
2017-Apr-26 22:59N 52°25' E 004°45'0 0.0
2017-Apr-26 22:29N 52°25' E 004°45'0 0.0
2017-Apr-26 21:53N 52°25' E 004°45'0 0.0
2017-Apr-26 21:29N 52°25' E 004°45'0 0.0
2017-Apr-26 20:59N 52°25' E 004°45'0 0.0
2017-Apr-26 20:23N 52°25' E 004°45'0 0.0
2017-Apr-26 19:59N 52°25' E 004°45'0 0.0
2017-Apr-26 19:29N 52°25' E 004°45'0 0.0
2017-Apr-26 18:59N 52°25' E 004°45'0 0.0
2017-Apr-26 18:28N 52°25' E 004°45'0 0.0
2017-Apr-26 18:00N 52°25' E 004°45'0 0.0
2017-Apr-26 17:27N 52°25' E 004°45'0 0.0
2017-Apr-26 16:57N 52°25' E 004°45'0 0.0
2017-Apr-26 16:19N 52°25' E 004°45'0 0.0
2017-Apr-26 15:58N 52°25' E 004°45'0 0.0
2017-Apr-26 15:28N 52°25' E 004°45'0 0.0
2017-Apr-26 14:58N 52°25' E 004°45'0 0.0
2017-Apr-26 14:19N 52°25' E 004°45'0 0.0
2017-Apr-26 13:47N 52°25' E 004°45'0 0.0
2017-Apr-26 13:28N 52°25' E 004°45'0 0.0
2017-Apr-26 12:56N 52°25' E 004°45'0 0.0
2017-Apr-26 12:29N 52°25' E 004°45'0 0.0
2017-Apr-26 11:50N 52°25' E 004°45'0 0.0
2017-Apr-26 11:30N 52°25' E 004°45'0 0.0
2017-Apr-26 10:41N 52°25' E 004°45'0 0.0
2017-Apr-26 10:29N 52°25' E 004°45'0 0.0
2017-Apr-26 10:00N 52°25' E 004°45'0 0.0
2017-Apr-26 09:27N 52°25' E 004°45'0 0.0
2017-Apr-26 09:01N 52°25' E 004°45'0 0.0
2017-Apr-26 08:23N 52°25' E 004°45'0 0.0
2017-Apr-26 07:50N 52°25' E 004°45'0 0.0
2017-Apr-26 07:26N 52°25' E 004°45'0 0.0
2017-Apr-26 06:56N 52°25' E 004°45'0 0.0
2017-Apr-26 06:30N 52°25' E 004°45'0 0.0
2017-Apr-26 05:55N 52°25' E 004°45'0 0.0
2017-Apr-26 05:29N 52°25' E 004°45'0 0.0
2017-Apr-26 04:46N 52°25' E 004°45'0 0.0
2017-Apr-26 04:28N 52°25' E 004°45'0 0.0
2017-Apr-26 03:52N 52°25' E 004°45'0 0.0
2017-Apr-26 03:30N 52°25' E 004°45'0 0.0
2017-Apr-26 02:58N 52°25' E 004°45'1 1.4
2017-Apr-26 02:31N 52°25' E 004°45'3 6.5
2017-Apr-26 02:00N 52°27' E 004°40'2 5.0
2017-Apr-26 01:31N 52°28' E 004°37'0 0.0
2017-Apr-26 01:00N 52°28' E 004°37'3 5.0
2017-Apr-26 00:30N 52°28' E 004°32'510.5
2017-Apr-26 00:00N 52°28' E 004°24'3 6.8
2017-Apr-25 23:30N 52°28' E 004°18'3 5.7
2017-Apr-25 23:01N 52°29' E 004°14'4 7.1
2017-Apr-25 22:30N 52°29' E 004°08'4 7.3
2017-Apr-25 22:00N 52°27' E 004°02'1 1.7
2017-Apr-25 21:29N 52°26' E 004°02'0 0.0
2017-Apr-25 20:59N 52°26' E 004°02'0 0.0
2017-Apr-25 20:29N 52°26' E 004°02'0 0.0
2017-Apr-25 19:53N 52°26' E 004°02'0 0.0
2017-Apr-25 19:29N 52°26' E 004°02'0 0.0
2017-Apr-25 18:41N 52°26' E 004°02'0 0.1
2017-Apr-25 18:26N 52°26' E 004°02'0 0.1
2017-Apr-25 17:59N 52°26' E 004°02'0 0.1
2017-Apr-25 17:29N 52°26' E 004°02'0 0.1
2017-Apr-25 16:59N 52°27' E 004°02'0 0.1
2017-Apr-25 16:29N 52°27' E 004°02'0 0.1
2017-Apr-25 15:50N 52°27' E 004°02'0 0.1
2017-Apr-25 15:29N 52°27' E 004°02'0 0.1
2017-Apr-25 14:59N 52°27' E 004°02'0 0.0
2017-Apr-25 13:59N 52°27' E 004°02'0 0.0
2017-Apr-25 13:29N 52°27' E 004°02'0 0.1
2017-Apr-25 12:59N 52°27' E 004°02'0 0.1
2017-Apr-25 12:26N 52°27' E 004°02'0 0.1
2017-Apr-25 11:59N 52°26' E 004°02'0 0.1
2017-Apr-25 11:29N 52°26' E 004°02'0 0.1
2017-Apr-25 10:59N 52°26' E 004°02'0 0.0
2017-Apr-25 10:29N 52°26' E 004°02'0 0.0
2017-Apr-25 09:59N 52°26' E 004°02'0 0.0
2017-Apr-25 09:29N 52°26' E 004°02'0 0.1
2017-Apr-25 08:59N 52°26' E 004°02'0 0.0
2017-Apr-25 08:29N 52°26' E 004°02'0 0.0
2017-Apr-25 07:59N 52°26' E 004°02'0 0.0
2017-Apr-25 07:29N 52°26' E 004°02'0 0.0
2017-Apr-25 06:59N 52°26' E 004°02'0 0.1
2017-Apr-25 06:29N 52°26' E 004°02'0 0.1
2017-Apr-25 05:59N 52°26' E 004°02'0 0.1
2017-Apr-25 05:29N 52°27' E 004°02'0 0.0
2017-Apr-25 04:59N 52°27' E 004°02'0 0.0
2017-Apr-25 04:29N 52°27' E 004°02'0 0.1
2017-Apr-25 03:59N 52°27' E 004°02'0 0.1
2017-Apr-25 03:23N 52°27' E 004°02'0 0.0
2017-Apr-25 02:59N 52°27' E 004°02'0 0.1
2017-Apr-25 02:29N 52°27' E 004°02'0 0.1
2017-Apr-25 01:59N 52°27' E 004°02'0 0.0
2017-Apr-25 01:29N 52°27' E 004°02'0 0.0
2017-Apr-25 00:59N 52°27' E 004°02'0 0.1
2017-Apr-25 00:29N 52°27' E 004°02'0 0.2
2017-Apr-24 23:59N 52°27' E 004°02'0 0.0
2017-Apr-24 23:29N 52°27' E 004°02'0 0.0
2017-Apr-24 22:59N 52°27' E 004°02'0 0.2
2017-Apr-24 22:29N 52°26' E 004°02'0 0.1
2017-Apr-24 21:59N 52°26' E 004°02'0 0.0
2017-Apr-24 21:29N 52°26' E 004°02'0 0.0
2017-Apr-24 20:59N 52°27' E 004°02'0 0.0
2017-Apr-24 20:29N 52°27' E 004°02'0 0.0
2017-Apr-24 19:59N 52°26' E 004°02'0 0.0
2017-Apr-24 19:29N 52°27' E 004°02'0 0.0
2017-Apr-24 18:59N 52°27' E 004°02'0 0.1
2017-Apr-24 18:29N 52°26' E 004°02'0 0.1
2017-Apr-24 17:59N 52°26' E 004°02'0 0.2
2017-Apr-24 17:29N 52°27' E 004°02'0 0.1
2017-Apr-24 16:59N 52°27' E 004°02'0 0.1
2017-Apr-24 16:29N 52°27' E 004°02'0 0.1
2017-Apr-24 15:59N 52°27' E 004°02'0 0.1
2017-Apr-24 15:29N 52°27' E 004°02'0 0.0
2017-Apr-24 14:59N 52°27' E 004°02'0 0.0
2017-Apr-24 13:44N 52°27' E 004°02'0 0.0
2017-Apr-24 13:20N 52°27' E 004°02'0 0.0
2017-Apr-24 12:59N 52°27' E 004°02'0 0.0
2017-Apr-24 12:29N 52°27' E 004°02'0 0.0
2017-Apr-24 11:59N 52°27' E 004°02'0 0.1
2017-Apr-24 11:29N 52°27' E 004°02'0 0.1
2017-Apr-24 10:59N 52°27' E 004°02'0 0.1
2017-Apr-24 10:29N 52°27' E 004°02'0 0.2
2017-Apr-24 09:59N 52°27' E 004°02'0 0.1
2017-Apr-24 09:29N 52°27' E 004°02'0 0.0
2017-Apr-24 08:59N 52°27' E 004°02'0 0.0
2017-Apr-24 08:29N 52°27' E 004°02'0 0.0
2017-Apr-24 07:59N 52°27' E 004°02'0 0.0
2017-Apr-24 07:29N 52°27' E 004°02'0 0.0
2017-Apr-24 06:59N 52°27' E 004°02'0 0.1
2017-Apr-24 06:29N 52°27' E 004°02'0 0.2
2017-Apr-24 05:59N 52°27' E 004°02'0 0.2
2017-Apr-24 05:26N 52°27' E 004°02'0 0.1
2017-Apr-24 04:59N 52°27' E 004°02'0 0.1
2017-Apr-24 04:29N 52°27' E 004°02'0 0.1
2017-Apr-24 03:59N 52°27' E 004°02'0 0.1
2017-Apr-24 03:26N 52°27' E 004°02'0 0.0
2017-Apr-24 02:59N 52°27' E 004°02'0 0.0
2017-Apr-24 02:29N 52°27' E 004°02'0 0.0
2017-Apr-24 01:59N 52°27' E 004°02'0 0.0
2017-Apr-24 01:26N 52°27' E 004°02'0 0.0
2017-Apr-24 00:59N 52°27' E 004°02'0 0.0
2017-Apr-24 00:26N 52°27' E 004°02'0 0.0
2017-Apr-23 23:53N 52°27' E 004°02'0 0.0
2017-Apr-23 23:20N 52°27' E 004°02'0 0.0
2017-Apr-23 22:56N 52°27' E 004°02'0 0.1
2017-Apr-23 22:17N 52°27' E 004°02'0 0.2
2017-Apr-23 21:59N 52°27' E 004°02'0 0.2
2017-Apr-23 21:17N 52°27' E 004°02'0 0.1
2017-Apr-23 20:59N 52°27' E 004°02'0 0.0
2017-Apr-23 20:17N 52°27' E 004°02'0 0.0
2017-Apr-23 19:59N 52°27' E 004°02'0 0.0
2017-Apr-23 19:29N 52°27' E 004°02'0 0.0
2017-Apr-23 18:59N 52°27' E 004°02'0 0.0
2017-Apr-23 18:23N 52°27' E 004°02'0 0.0
2017-Apr-23 17:50N 52°27' E 004°02'0 0.0
2017-Apr-23 17:17N 52°27' E 004°02'0 0.1
2017-Apr-23 16:56N 52°26' E 004°02'0 0.0
2017-Apr-23 16:29N 52°26' E 004°02'0 0.0
2017-Apr-23 15:59N 52°26' E 004°02'0 0.1
2017-Apr-23 15:08N 52°27' E 004°02'0 0.2
2017-Apr-23 14:59N 52°27' E 004°02'0 0.0
2017-Apr-23 14:17N 52°27' E 004°02'0 0.0
2017-Apr-23 12:23N 52°27' E 004°02'0 0.0
2017-Apr-23 11:59N 52°27' E 004°02'0 0.1
2017-Apr-23 11:29N 52°27' E 004°02'0 0.2
2017-Apr-23 10:50N 52°27' E 004°02'0 0.1
2017-Apr-23 10:29N 52°26' E 004°02'0 0.1
2017-Apr-23 09:59N 52°26' E 004°02'0 0.0
2017-Apr-23 09:29N 52°26' E 004°02'0 0.0
2017-Apr-23 08:56N 52°26' E 004°02'0 0.0
2017-Apr-23 08:08N 52°26' E 004°02'0 0.0
2017-Apr-23 07:59N 52°26' E 004°02'0 0.0
2017-Apr-23 07:14N 52°26' E 004°02'0 0.0
2017-Apr-23 06:47N 52°26' E 004°02'0 0.0
2017-Apr-23 06:29N 52°26' E 004°02'0 0.0
2017-Apr-23 05:59N 52°26' E 004°02'0 0.0
2017-Apr-23 05:23N 52°26' E 004°02'0 0.0
2017-Apr-23 04:56N 52°26' E 004°02'0 0.0
2017-Apr-23 04:29N 52°26' E 004°02'0 0.0
2017-Apr-23 03:59N 52°26' E 004°02'0 0.1
2017-Apr-23 03:29N 52°26' E 004°02'0 0.0
2017-Apr-23 02:56N 52°26' E 004°02'0 0.1
2017-Apr-23 02:26N 52°26' E 004°02'0 0.1
2017-Apr-23 01:59N 52°26' E 004°02'0 0.1
2017-Apr-23 01:20N 52°27' E 004°02'0 0.0
2017-Apr-23 00:47N 52°27' E 004°02'0 0.1
2017-Apr-23 00:29N 52°27' E 004°02'0 0.1
2017-Apr-22 23:59N 52°27' E 004°02'0 0.0
2017-Apr-22 23:29N 52°27' E 004°02'0 0.1
2017-Apr-22 22:56N 52°26' E 004°02'0 0.1
2017-Apr-22 22:29N 52°26' E 004°02'0 0.0
2017-Apr-22 21:53N 52°26' E 004°02'0 0.0
2017-Apr-22 21:29N 52°26' E 004°02'0 0.0
2017-Apr-22 20:59N 52°26' E 004°02'0 0.0
2017-Apr-22 20:29N 52°26' E 004°02'0 0.0
2017-Apr-22 19:59N 52°26' E 004°02'0 0.0
2017-Apr-22 19:29N 52°26' E 004°02'0 0.0
2017-Apr-22 18:53N 52°26' E 004°02'0 0.0
2017-Apr-22 18:20N 52°26' E 004°02'0 0.0
2017-Apr-22 17:59N 52°26' E 004°02'0 0.0
2017-Apr-22 17:29N 52°26' E 004°02'0 0.0
2017-Apr-22 16:50N 52°26' E 004°02'0 0.0
2017-Apr-22 10:17N 52°26' E 004°02'0 0.0
2017-Apr-22 04:35N 52°26' E 004°02'0 0.0
2017-Apr-22 04:08N 52°26' E 004°02'0 0.1
2017-Apr-22 03:59N 52°26' E 004°02'0 0.1
2017-Apr-22 03:29N 52°26' E 004°02'0 0.0
2017-Apr-21 22:02N 52°27' E 004°02'0 0.0
2017-Apr-21 14:53N 52°27' E 004°02'0 0.1
2017-Apr-21 14:26N 52°27' E 004°02'0 0.0
2017-Apr-21 04:36N 52°27' E 004°02'0 0.0
2017-Apr-21 04:30N 52°27' E 004°02'0 0.0
2017-Apr-21 04:00N 52°27' E 004°02'0 0.0
2017-Apr-21 03:30N 52°27' E 004°02'0 0.0
2017-Apr-21 03:00N 52°27' E 004°02'0 0.1
2017-Apr-21 02:30N 52°27' E 004°02'0 0.1
2017-Apr-21 02:00N 52°27' E 004°02'0 0.1
2017-Apr-21 01:30N 52°27' E 004°02'0 0.1
2017-Apr-21 01:00N 52°27' E 004°02'0 0.0
2017-Apr-21 00:24N 52°27' E 004°02'0 0.0
2017-Apr-21 00:00N 52°27' E 004°02'0 0.0
2017-Apr-20 23:21N 52°27' E 004°02'0 0.0
2017-Apr-20 23:00N 52°27' E 004°02'0 0.0
2017-Apr-20 22:18N 52°27' E 004°02'0 0.0
2017-Apr-20 22:00N 52°27' E 004°02'0 0.0
2017-Apr-20 21:30N 52°27' E 004°02'0 0.0
2017-Apr-20 20:33N 52°27' E 004°02'0 0.1
2017-Apr-20 20:24N 52°27' E 004°02'0 0.0
2017-Apr-20 19:51N 52°27' E 004°02'0 0.0
2017-Apr-20 19:27N 52°27' E 004°02'0 0.0
2017-Apr-20 19:00N 52°27' E 004°02'0 0.0
2017-Apr-20 18:30N 52°27' E 004°02'0 0.1
2017-Apr-20 18:00N 52°27' E 004°02'0 0.0
2017-Apr-20 17:30N 52°27' E 004°02'0 0.0
2017-Apr-20 17:00N 52°27' E 004°02'0 0.1
2017-Apr-20 16:30N 52°27' E 004°02'0 0.1
2017-Apr-20 16:00N 52°27' E 004°02'0 0.0
2017-Apr-20 15:30N 52°27' E 004°02'0 0.0
2017-Apr-20 15:00N 52°27' E 004°02'0 0.1
2017-Apr-20 14:30N 52°27' E 004°02'0 0.1
2017-Apr-20 13:30N 52°27' E 004°02'0 0.0
2017-Apr-20 13:00N 52°27' E 004°02'0 0.0
2017-Apr-20 12:30N 52°27' E 004°02'0 0.0
2017-Apr-20 11:57N 52°27' E 004°02'0 0.0
2017-Apr-20 11:27N 52°27' E 004°02'0 0.0
2017-Apr-20 11:00N 52°27' E 004°02'0 0.0
2017-Apr-20 10:30N 52°27' E 004°02'0 0.0
2017-Apr-20 07:18N 52°27' E 004°02'1 2.4
2017-Apr-20 07:00N 52°27' E 004°01'7511.6
2017-Apr-20 00:35N 51°39' E 002°28'211.8
2017-Apr-20 00:25N 51°38' E 002°26'611.9
2017-Apr-19 23:57N 51°34' E 002°20'612.1
2017-Apr-19 23:28N 51°29' E 002°14'612.2
2017-Apr-19 23:00N 51°25' E 002°09'612.3
2017-Apr-19 22:31N 51°19' E 002°07'611.1
2017-Apr-19 22:00N 51°14' E 002°03'612.4
2017-Apr-19 21:30N 51°11' E 001°54'  

Dump ship's entire track history